sensor_id;sensor_type;location;lat;lon;timestamp;P1;durP1;ratioP1;P2;durP2;ratioP2
46493;SDS011;53214;49.314;6.280;2022-07-23T00:00:24;12.38;;;11.18;;
46493;SDS011;53214;49.314;6.280;2022-07-23T00:02:51;14.98;;;10.45;;
46493;SDS011;53214;49.314;6.280;2022-07-23T00:05:18;12.82;;;10.07;;
46493;SDS011;53214;49.314;6.280;2022-07-23T00:07:45;12.27;;;10.10;;
46493;SDS011;53214;49.314;6.280;2022-07-23T00:10:12;12.38;;;11.07;;
46493;SDS011;53214;49.314;6.280;2022-07-23T00:12:39;13.43;;;11.30;;
46493;SDS011;53214;49.314;6.280;2022-07-23T00:15:17;16.40;;;12.23;;
46493;SDS011;53214;49.314;6.280;2022-07-23T00:17:44;14.30;;;12.80;;
46493;SDS011;53214;49.314;6.280;2022-07-23T00:20:12;18.63;;;13.75;;
46493;SDS011;53214;49.314;6.280;2022-07-23T00:22:45;16.50;;;12.48;;
46493;SDS011;53214;49.314;6.280;2022-07-23T00:25:20;14.07;;;11.52;;
46493;SDS011;53214;49.314;6.280;2022-07-23T00:27:54;16.93;;;11.93;;
46493;SDS011;53214;49.314;6.280;2022-07-23T00:30:21;13.23;;;11.48;;
46493;SDS011;53214;49.314;6.280;2022-07-23T00:32:49;14.25;;;12.38;;
46493;SDS011;53214;49.314;6.280;2022-07-23T00:35:22;13.95;;;12.25;;
46493;SDS011;53214;49.314;6.280;2022-07-23T00:37:55;13.50;;;12.00;;
46493;SDS011;53214;49.314;6.280;2022-07-23T00:40:22;13.88;;;12.00;;
46493;SDS011;53214;49.314;6.280;2022-07-23T00:42:50;13.00;;;11.77;;
46493;SDS011;53214;49.314;6.280;2022-07-23T00:45:17;13.00;;;11.32;;
46493;SDS011;53214;49.314;6.280;2022-07-23T00:47:44;13.88;;;12.10;;
46493;SDS011;53214;49.314;6.280;2022-07-23T00:50:11;13.10;;;11.90;;
46493;SDS011;53214;49.314;6.280;2022-07-23T00:52:38;16.40;;;13.00;;
46493;SDS011;53214;49.314;6.280;2022-07-23T00:55:07;16.02;;;12.70;;
46493;SDS011;53214;49.314;6.280;2022-07-23T00:57:36;15.98;;;12.55;;
46493;SDS011;53214;49.314;6.280;2022-07-23T01:00:04;14.13;;;12.65;;
46493;SDS011;53214;49.314;6.280;2022-07-23T01:02:33;15.10;;;13.00;;
46493;SDS011;53214;49.314;6.280;2022-07-23T01:05:01;13.00;;;11.73;;
46493;SDS011;53214;49.314;6.280;2022-07-23T01:07:28;12.93;;;11.63;;
46493;SDS011;53214;49.314;6.280;2022-07-23T01:09:55;13.23;;;11.82;;
46493;SDS011;53214;49.314;6.280;2022-07-23T01:12:23;13.80;;;10.73;;
46493;SDS011;53214;49.314;6.280;2022-07-23T01:14:59;13.07;;;11.68;;
46493;SDS011;53214;49.314;6.280;2022-07-23T01:17:26;12.95;;;11.65;;
46493;SDS011;53214;49.314;6.280;2022-07-23T01:19:54;12.80;;;11.43;;
46493;SDS011;53214;49.314;6.280;2022-07-23T01:22:21;13.30;;;11.77;;
46493;SDS011;53214;49.314;6.280;2022-07-23T01:24:48;13.90;;;12.57;;
46493;SDS011;53214;49.314;6.280;2022-07-23T01:27:15;15.60;;;13.85;;
46493;SDS011;53214;49.314;6.280;2022-07-23T01:29:44;15.73;;;13.05;;
46493;SDS011;53214;49.314;6.280;2022-07-23T01:32:11;15.13;;;13.50;;
46493;SDS011;53214;49.314;6.280;2022-07-23T01:34:38;16.58;;;12.90;;
46493;SDS011;53214;49.314;6.280;2022-07-23T01:37:07;13.40;;;12.13;;
46493;SDS011;53214;49.314;6.280;2022-07-23T01:39:34;14.02;;;12.65;;
46493;SDS011;53214;49.314;6.280;2022-07-23T01:42:00;13.40;;;12.15;;
46493;SDS011;53214;49.314;6.280;2022-07-23T01:44:28;12.95;;;11.80;;
46493;SDS011;53214;49.314;6.280;2022-07-23T01:46:55;13.63;;;12.27;;
46493;SDS011;53214;49.314;6.280;2022-07-23T01:49:22;14.10;;;12.38;;
46493;SDS011;53214;49.314;6.280;2022-07-23T01:51:49;13.40;;;12.20;;
46493;SDS011;53214;49.314;6.280;2022-07-23T01:54:32;12.60;;;11.40;;
46493;SDS011;53214;49.314;6.280;2022-07-23T01:57:00;14.90;;;12.32;;
46493;SDS011;53214;49.314;6.280;2022-07-23T01:59:27;13.15;;;11.40;;
46493;SDS011;53214;49.314;6.280;2022-07-23T02:01:55;13.55;;;12.00;;
46493;SDS011;53214;49.314;6.280;2022-07-23T02:04:22;15.05;;;13.25;;
46493;SDS011;53214;49.314;6.280;2022-07-23T02:06:51;14.02;;;12.70;;
46493;SDS011;53214;49.314;6.280;2022-07-23T02:09:18;13.52;;;12.20;;
46493;SDS011;53214;49.314;6.280;2022-07-23T02:11:45;14.15;;;12.25;;
46493;SDS011;53214;49.314;6.280;2022-07-23T02:14:12;14.68;;;12.82;;
46493;SDS011;53214;49.314;6.280;2022-07-23T02:16:39;15.07;;;11.70;;
46493;SDS011;53214;49.314;6.280;2022-07-23T02:19:06;14.65;;;12.50;;
46493;SDS011;53214;49.314;6.280;2022-07-23T02:21:33;15.07;;;13.43;;
46493;SDS011;53214;49.314;6.280;2022-07-23T02:24:00;14.82;;;13.27;;
46493;SDS011;53214;49.314;6.280;2022-07-23T02:26:27;17.38;;;13.05;;
46493;SDS011;53214;49.314;6.280;2022-07-23T02:28:54;14.90;;;13.50;;
46493;SDS011;53214;49.314;6.280;2022-07-23T02:31:21;16.02;;;13.90;;
46493;SDS011;53214;49.314;6.280;2022-07-23T02:33:48;16.45;;;14.85;;
46493;SDS011;53214;49.314;6.280;2022-07-23T02:36:15;16.02;;;14.52;;
46493;SDS011;53214;49.314;6.280;2022-07-23T02:38:42;18.70;;;15.75;;
46493;SDS011;53214;49.314;6.280;2022-07-23T02:41:09;17.55;;;15.68;;
46493;SDS011;53214;49.314;6.280;2022-07-23T02:43:35;17.17;;;15.02;;
46493;SDS011;53214;49.314;6.280;2022-07-23T02:46:02;19.13;;;16.00;;
46493;SDS011;53214;49.314;6.280;2022-07-23T02:48:29;16.58;;;14.88;;
46493;SDS011;53214;49.314;6.280;2022-07-23T02:50:56;17.73;;;15.70;;
46493;SDS011;53214;49.314;6.280;2022-07-23T02:53:23;17.58;;;15.48;;
46493;SDS011;53214;49.314;6.280;2022-07-23T02:55:50;19.30;;;15.38;;
46493;SDS011;53214;49.314;6.280;2022-07-23T02:58:17;18.50;;;16.58;;
46493;SDS011;53214;49.314;6.280;2022-07-23T03:00:44;18.85;;;15.93;;
46493;SDS011;53214;49.314;6.280;2022-07-23T03:03:11;18.33;;;16.42;;
46493;SDS011;53214;49.314;6.280;2022-07-23T03:05:38;22.60;;;18.23;;
46493;SDS011;53214;49.314;6.280;2022-07-23T03:08:05;18.58;;;16.55;;
46493;SDS011;53214;49.314;6.280;2022-07-23T03:10:32;19.10;;;17.20;;
46493;SDS011;53214;49.314;6.280;2022-07-23T03:12:59;19.65;;;16.50;;
46493;SDS011;53214;49.314;6.280;2022-07-23T03:15:26;17.70;;;15.70;;
46493;SDS011;53214;49.314;6.280;2022-07-23T03:17:53;19.40;;;16.58;;
46493;SDS011;53214;49.314;6.280;2022-07-23T03:20:20;18.58;;;16.67;;
46493;SDS011;53214;49.314;6.280;2022-07-23T03:22:46;20.50;;;18.40;;
46493;SDS011;53214;49.314;6.280;2022-07-23T03:25:13;18.77;;;16.90;;
46493;SDS011;53214;49.314;6.280;2022-07-23T03:27:40;20.25;;;17.52;;
46493;SDS011;53214;49.314;6.280;2022-07-23T03:30:07;19.58;;;17.42;;
46493;SDS011;53214;49.314;6.280;2022-07-23T03:32:35;20.40;;;18.20;;
46493;SDS011;53214;49.314;6.280;2022-07-23T03:35:02;19.05;;;17.15;;
46493;SDS011;53214;49.314;6.280;2022-07-23T03:37:32;21.42;;;18.27;;
46493;SDS011;53214;49.314;6.280;2022-07-23T03:39:59;19.67;;;17.45;;
46493;SDS011;53214;49.314;6.280;2022-07-23T03:42:26;20.00;;;17.45;;
46493;SDS011;53214;49.314;6.280;2022-07-23T03:44:53;19.20;;;17.02;;
46493;SDS011;53214;49.314;6.280;2022-07-23T03:47:20;19.73;;;17.25;;
46493;SDS011;53214;49.314;6.280;2022-07-23T03:49:48;20.02;;;17.75;;
46493;SDS011;53214;49.314;6.280;2022-07-23T03:52:16;18.90;;;16.85;;
46493;SDS011;53214;49.314;6.280;2022-07-23T03:54:43;20.95;;;18.70;;
46493;SDS011;53214;49.314;6.280;2022-07-23T03:57:09;20.98;;;18.42;;
46493;SDS011;53214;49.314;6.280;2022-07-23T03:59:36;20.85;;;18.65;;
46493;SDS011;53214;49.314;6.280;2022-07-23T04:02:03;21.35;;;19.15;;
46493;SDS011;53214;49.314;6.280;2022-07-23T04:04:30;22.52;;;19.00;;
46493;SDS011;53214;49.314;6.280;2022-07-23T04:06:57;23.13;;;19.83;;
46493;SDS011;53214;49.314;6.280;2022-07-23T04:09:24;26.35;;;19.38;;
46493;SDS011;53214;49.314;6.280;2022-07-23T04:11:51;23.60;;;20.55;;
46493;SDS011;53214;49.314;6.280;2022-07-23T04:14:18;24.27;;;20.30;;
46493;SDS011;53214;49.314;6.280;2022-07-23T04:16:45;24.88;;;20.15;;
46493;SDS011;53214;49.314;6.280;2022-07-23T04:19:12;22.73;;;19.80;;
46493;SDS011;53214;49.314;6.280;2022-07-23T04:21:39;22.17;;;19.75;;
46493;SDS011;53214;49.314;6.280;2022-07-23T04:24:06;23.00;;;19.42;;
46493;SDS011;53214;49.314;6.280;2022-07-23T04:26:33;25.63;;;19.48;;
46493;SDS011;53214;49.314;6.280;2022-07-23T04:29:00;23.92;;;20.00;;
46493;SDS011;53214;49.314;6.280;2022-07-23T04:31:27;21.63;;;19.33;;
46493;SDS011;53214;49.314;6.280;2022-07-23T04:34:02;23.33;;;19.20;;
46493;SDS011;53214;49.314;6.280;2022-07-23T04:36:29;21.25;;;19.05;;
46493;SDS011;53214;49.314;6.280;2022-07-23T04:38:56;21.15;;;18.67;;
46493;SDS011;53214;49.314;6.280;2022-07-23T04:41:23;20.48;;;18.33;;
46493;SDS011;53214;49.314;6.280;2022-07-23T04:43:50;22.98;;;18.67;;
46493;SDS011;53214;49.314;6.280;2022-07-23T04:46:16;20.83;;;18.40;;
46493;SDS011;53214;49.314;6.280;2022-07-23T04:48:44;21.17;;;18.90;;
46493;SDS011;53214;49.314;6.280;2022-07-23T04:51:11;21.95;;;18.58;;
46493;SDS011;53214;49.314;6.280;2022-07-23T04:53:38;23.40;;;18.65;;
46493;SDS011;53214;49.314;6.280;2022-07-23T04:56:05;21.65;;;19.10;;
46493;SDS011;53214;49.314;6.280;2022-07-23T04:58:32;25.08;;;19.23;;
46493;SDS011;53214;49.314;6.280;2022-07-23T05:00:59;22.58;;;19.00;;
46493;SDS011;53214;49.314;6.280;2022-07-23T05:03:26;21.02;;;18.52;;
46493;SDS011;53214;49.314;6.280;2022-07-23T05:05:53;24.13;;;19.40;;
46493;SDS011;53214;49.314;6.280;2022-07-23T05:08:20;21.02;;;18.83;;
46493;SDS011;53214;49.314;6.280;2022-07-23T05:10:47;23.50;;;20.25;;
46493;SDS011;53214;49.314;6.280;2022-07-23T05:13:15;21.00;;;18.75;;
46493;SDS011;53214;49.314;6.280;2022-07-23T05:15:42;20.73;;;18.55;;
46493;SDS011;53214;49.314;6.280;2022-07-23T05:18:10;23.90;;;19.88;;
46493;SDS011;53214;49.314;6.280;2022-07-23T05:20:37;24.65;;;20.83;;
46493;SDS011;53214;49.314;6.280;2022-07-23T05:23:04;26.92;;;20.33;;
46493;SDS011;53214;49.314;6.280;2022-07-23T05:25:31;21.98;;;19.45;;
46493;SDS011;53214;49.314;6.280;2022-07-23T05:27:58;22.00;;;19.65;;
46493;SDS011;53214;49.314;6.280;2022-07-23T05:30:25;24.35;;;19.33;;
46493;SDS011;53214;49.314;6.280;2022-07-23T05:32:52;21.73;;;19.48;;
46493;SDS011;53214;49.314;6.280;2022-07-23T05:35:19;21.15;;;19.13;;
46493;SDS011;53214;49.314;6.280;2022-07-23T05:37:45;21.17;;;18.70;;
46493;SDS011;53214;49.314;6.280;2022-07-23T05:40:13;23.08;;;18.05;;
46493;SDS011;53214;49.314;6.280;2022-07-23T05:42:41;21.58;;;17.88;;
46493;SDS011;53214;49.314;6.280;2022-07-23T05:45:09;19.60;;;17.33;;
46493;SDS011;53214;49.314;6.280;2022-07-23T05:47:54;21.17;;;17.58;;
46493;SDS011;53214;49.314;6.280;2022-07-23T05:50:21;20.77;;;18.42;;
46493;SDS011;53214;49.314;6.280;2022-07-23T05:52:48;21.73;;;18.98;;
46493;SDS011;53214;49.314;6.280;2022-07-23T05:55:15;22.08;;;18.45;;
46493;SDS011;53214;49.314;6.280;2022-07-23T05:57:42;21.13;;;18.85;;
46493;SDS011;53214;49.314;6.280;2022-07-23T06:00:09;22.20;;;19.15;;
46493;SDS011;53214;49.314;6.280;2022-07-23T06:02:37;21.27;;;18.60;;
46493;SDS011;53214;49.314;6.280;2022-07-23T06:05:05;23.02;;;19.35;;
46493;SDS011;53214;49.314;6.280;2022-07-23T06:07:34;20.58;;;17.50;;
46493;SDS011;53214;49.314;6.280;2022-07-23T06:10:01;21.15;;;18.23;;
46493;SDS011;53214;49.314;6.280;2022-07-23T06:12:29;20.17;;;18.08;;
46493;SDS011;53214;49.314;6.280;2022-07-23T06:14:56;22.55;;;19.35;;
46493;SDS011;53214;49.314;6.280;2022-07-23T06:17:23;22.30;;;18.90;;
46493;SDS011;53214;49.314;6.280;2022-07-23T06:19:52;20.35;;;18.05;;
46493;SDS011;53214;49.314;6.280;2022-07-23T06:22:19;20.60;;;17.77;;
46493;SDS011;53214;49.314;6.280;2022-07-23T06:24:46;21.60;;;17.50;;
46493;SDS011;53214;49.314;6.280;2022-07-23T06:27:14;20.55;;;18.00;;
46493;SDS011;53214;49.314;6.280;2022-07-23T06:29:41;21.50;;;17.80;;
46493;SDS011;53214;49.314;6.280;2022-07-23T06:32:08;20.27;;;17.20;;
46493;SDS011;53214;49.314;6.280;2022-07-23T06:34:35;22.15;;;18.42;;
46493;SDS011;53214;49.314;6.280;2022-07-23T06:37:02;19.38;;;17.33;;
46493;SDS011;53214;49.314;6.280;2022-07-23T06:39:29;21.13;;;18.63;;
46493;SDS011;53214;49.314;6.280;2022-07-23T06:41:56;20.98;;;17.73;;
46493;SDS011;53214;49.314;6.280;2022-07-23T06:44:26;21.98;;;17.92;;
46493;SDS011;53214;49.314;6.280;2022-07-23T06:46:53;22.30;;;17.67;;
46493;SDS011;53214;49.314;6.280;2022-07-23T06:49:20;19.65;;;16.23;;
46493;SDS011;53214;49.314;6.280;2022-07-23T06:51:47;19.88;;;16.67;;
46493;SDS011;53214;49.314;6.280;2022-07-23T06:54:14;21.17;;;17.23;;
46493;SDS011;53214;49.314;6.280;2022-07-23T06:56:41;19.73;;;17.63;;
46493;SDS011;53214;49.314;6.280;2022-07-23T06:59:09;20.90;;;16.73;;
46493;SDS011;53214;49.314;6.280;2022-07-23T07:01:36;22.95;;;16.95;;
46493;SDS011;53214;49.314;6.280;2022-07-23T07:04:03;22.40;;;17.38;;
46493;SDS011;53214;49.314;6.280;2022-07-23T07:06:30;19.55;;;17.27;;
46493;SDS011;53214;49.314;6.280;2022-07-23T07:08:57;21.52;;;17.75;;
46493;SDS011;53214;49.314;6.280;2022-07-23T07:11:25;19.77;;;16.75;;
46493;SDS011;53214;49.314;6.280;2022-07-23T07:13:52;17.73;;;15.82;;
46493;SDS011;53214;49.314;6.280;2022-07-23T07:16:19;18.40;;;16.40;;
46493;SDS011;53214;49.314;6.280;2022-07-23T07:18:46;16.52;;;14.73;;
46493;SDS011;53214;49.314;6.280;2022-07-23T07:21:13;17.02;;;15.27;;
46493;SDS011;53214;49.314;6.280;2022-07-23T07:23:40;17.95;;;16.05;;
46493;SDS011;53214;49.314;6.280;2022-07-23T07:26:07;20.10;;;16.20;;
46493;SDS011;53214;49.314;6.280;2022-07-23T07:28:35;18.83;;;16.13;;
46493;SDS011;53214;49.314;6.280;2022-07-23T07:31:02;16.58;;;14.63;;
46493;SDS011;53214;49.314;6.280;2022-07-23T07:33:29;16.73;;;14.73;;
46493;SDS011;53214;49.314;6.280;2022-07-23T07:35:56;17.02;;;15.00;;
46493;SDS011;53214;49.314;6.280;2022-07-23T07:38:23;18.83;;;15.52;;
46493;SDS011;53214;49.314;6.280;2022-07-23T07:40:50;17.08;;;14.48;;
46493;SDS011;53214;49.314;6.280;2022-07-23T07:43:17;16.33;;;14.63;;
46493;SDS011;53214;49.314;6.280;2022-07-23T07:45:44;16.58;;;14.60;;
46493;SDS011;53214;49.314;6.280;2022-07-23T07:48:11;16.55;;;14.80;;
46493;SDS011;53214;49.314;6.280;2022-07-23T07:50:38;17.45;;;13.90;;
46493;SDS011;53214;49.314;6.280;2022-07-23T07:53:05;16.15;;;14.40;;
46493;SDS011;53214;49.314;6.280;2022-07-23T07:55:32;15.93;;;14.20;;
46493;SDS011;53214;49.314;6.280;2022-07-23T07:57:59;15.85;;;13.85;;
46493;SDS011;53214;49.314;6.280;2022-07-23T08:00:27;17.73;;;13.30;;
46493;SDS011;53214;49.314;6.280;2022-07-23T08:02:55;15.50;;;13.90;;
46493;SDS011;53214;49.314;6.280;2022-07-23T08:05:25;17.08;;;14.40;;
46493;SDS011;53214;49.314;6.280;2022-07-23T08:07:58;16.67;;;14.35;;
46493;SDS011;53214;49.314;6.280;2022-07-23T08:10:26;17.25;;;14.10;;
46493;SDS011;53214;49.314;6.280;2022-07-23T08:12:55;16.77;;;14.45;;
46493;SDS011;53214;49.314;6.280;2022-07-23T08:15:23;16.83;;;14.40;;
46493;SDS011;53214;49.314;6.280;2022-07-23T08:17:52;16.15;;;14.45;;
46493;SDS011;53214;49.314;6.280;2022-07-23T08:20:20;16.02;;;13.77;;
46493;SDS011;53214;49.314;6.280;2022-07-23T08:22:53;15.43;;;13.60;;
46493;SDS011;53214;49.314;6.280;2022-07-23T08:25:22;15.13;;;12.80;;
46493;SDS011;53214;49.314;6.280;2022-07-23T08:27:54;16.15;;;14.02;;
46493;SDS011;53214;49.314;6.280;2022-07-23T08:30:23;14.68;;;13.05;;
46493;SDS011;53214;49.314;6.280;2022-07-23T08:33:00;14.32;;;12.00;;
46493;SDS011;53214;49.314;6.280;2022-07-23T08:37:59;16.95;;;14.10;;
46493;SDS011;53214;49.314;6.280;2022-07-23T08:40:28;15.20;;;13.48;;
46493;SDS011;53214;49.314;6.280;2022-07-23T08:43:04;15.02;;;12.05;;
46493;SDS011;53214;49.314;6.280;2022-07-23T08:45:36;14.40;;;11.57;;
46493;SDS011;53214;49.314;6.280;2022-07-23T08:48:07;11.20;;;10.00;;
46493;SDS011;53214;49.314;6.280;2022-07-23T08:50:37;15.73;;;12.07;;
46493;SDS011;53214;49.314;6.280;2022-07-23T08:53:07;15.05;;;12.43;;
46493;SDS011;53214;49.314;6.280;2022-07-23T08:55:34;13.38;;;11.25;;
46493;SDS011;53214;49.314;6.280;2022-07-23T08:58:01;13.82;;;11.88;;
46493;SDS011;53214;49.314;6.280;2022-07-23T09:00:28;13.73;;;12.00;;
46493;SDS011;53214;49.314;6.280;2022-07-23T09:02:56;13.75;;;12.32;;
46493;SDS011;53214;49.314;6.280;2022-07-23T09:05:23;12.80;;;11.48;;
46493;SDS011;53214;49.314;6.280;2022-07-23T09:08:06;12.27;;;10.98;;
46493;SDS011;53214;49.314;6.280;2022-07-23T09:10:54;13.65;;;11.40;;
46493;SDS011;53214;49.314;6.280;2022-07-23T09:16:18;14.45;;;11.88;;
46493;SDS011;53214;49.314;6.280;2022-07-23T09:18:49;13.77;;;10.93;;
46493;SDS011;53214;49.314;6.280;2022-07-23T09:23:48;13.10;;;10.80;;
46493;SDS011;53214;49.314;6.280;2022-07-23T09:26:19;12.07;;;10.77;;
46493;SDS011;53214;49.314;6.280;2022-07-23T09:28:50;12.63;;;11.15;;
46493;SDS011;53214;49.314;6.280;2022-07-23T09:31:19;12.55;;;10.77;;
46493;SDS011;53214;49.314;6.280;2022-07-23T09:33:47;13.18;;;10.60;;
46493;SDS011;53214;49.314;6.280;2022-07-23T09:36:14;12.73;;;10.13;;
46493;SDS011;53214;49.314;6.280;2022-07-23T09:38:48;13.10;;;11.73;;
46493;SDS011;53214;49.314;6.280;2022-07-23T09:41:16;11.65;;;10.38;;
46493;SDS011;53214;49.314;6.280;2022-07-23T09:43:44;13.10;;;10.30;;
46493;SDS011;53214;49.314;6.280;2022-07-23T09:48:46;11.87;;;10.60;;
46493;SDS011;53214;49.314;6.280;2022-07-23T09:51:13;12.60;;;11.30;;
46493;SDS011;53214;49.314;6.280;2022-07-23T09:53:44;11.90;;;9.93;;
46493;SDS011;53214;49.314;6.280;2022-07-23T09:56:11;12.32;;;9.23;;
46493;SDS011;53214;49.314;6.280;2022-07-23T09:58:41;10.38;;;9.27;;
46493;SDS011;53214;49.314;6.280;2022-07-23T10:01:13;12.35;;;9.68;;
46493;SDS011;53214;49.314;6.280;2022-07-23T10:03:41;10.52;;;9.18;;
46493;SDS011;53214;49.314;6.280;2022-07-23T10:06:09;15.40;;;9.80;;
46493;SDS011;53214;49.314;6.280;2022-07-23T10:08:38;10.45;;;8.70;;
46493;SDS011;53214;49.314;6.280;2022-07-23T10:11:07;10.20;;;8.88;;
46493;SDS011;53214;49.314;6.280;2022-07-23T10:13:37;11.15;;;8.95;;
46493;SDS011;53214;49.314;6.280;2022-07-23T10:16:25;11.43;;;8.55;;
46493;SDS011;53214;49.314;6.280;2022-07-23T10:18:53;10.65;;;8.63;;
46493;SDS011;53214;49.314;6.280;2022-07-23T10:21:23;8.48;;;7.68;;
46493;SDS011;53214;49.314;6.280;2022-07-23T10:23:58;9.82;;;8.45;;
46493;SDS011;53214;49.314;6.280;2022-07-23T10:29:25;10.43;;;7.60;;
46493;SDS011;53214;49.314;6.280;2022-07-23T10:34:52;9.23;;;7.85;;
46493;SDS011;53214;49.314;6.280;2022-07-23T10:37:47;10.00;;;7.93;;
46493;SDS011;53214;49.314;6.280;2022-07-23T10:40:18;9.30;;;7.45;;
46493;SDS011;53214;49.314;6.280;2022-07-23T10:42:46;9.50;;;8.52;;
46493;SDS011;53214;49.314;6.280;2022-07-23T10:48:20;9.10;;;8.07;;
46493;SDS011;53214;49.314;6.280;2022-07-23T10:59:30;8.05;;;7.10;;
46493;SDS011;53214;49.314;6.280;2022-07-23T11:04:52;8.07;;;7.28;;
46493;SDS011;53214;49.314;6.280;2022-07-23T11:07:19;11.27;;;8.27;;
46493;SDS011;53214;49.314;6.280;2022-07-23T11:09:47;16.58;;;8.50;;
46493;SDS011;53214;49.314;6.280;2022-07-23T11:17:33;8.13;;;7.32;;
46493;SDS011;53214;49.314;6.280;2022-07-23T11:22:40;8.30;;;7.47;;
46493;SDS011;53214;49.314;6.280;2022-07-23T11:28:08;8.40;;;7.60;;
46493;SDS011;53214;49.314;6.280;2022-07-23T11:30:44;8.63;;;7.72;;
46493;SDS011;53214;49.314;6.280;2022-07-23T11:35:45;9.88;;;8.85;;
46493;SDS011;53214;49.314;6.280;2022-07-23T11:38:21;10.82;;;8.45;;
46493;SDS011;53214;49.314;6.280;2022-07-23T11:40:53;9.20;;;7.97;;
46493;SDS011;53214;49.314;6.280;2022-07-23T11:43:21;10.43;;;8.02;;
46493;SDS011;53214;49.314;6.280;2022-07-23T11:45:49;9.93;;;8.07;;
46493;SDS011;53214;49.314;6.280;2022-07-23T11:48:27;8.75;;;7.82;;
46493;SDS011;53214;49.314;6.280;2022-07-23T11:50:56;9.38;;;7.95;;
46493;SDS011;53214;49.314;6.280;2022-07-23T11:53:25;8.57;;;7.65;;
46493;SDS011;53214;49.314;6.280;2022-07-23T11:55:54;10.38;;;8.10;;
46493;SDS011;53214;49.314;6.280;2022-07-23T11:58:29;8.93;;;8.02;;
46493;SDS011;53214;49.314;6.280;2022-07-23T12:00:57;8.70;;;7.80;;
46493;SDS011;53214;49.314;6.280;2022-07-23T12:03:24;9.27;;;7.20;;
46493;SDS011;53214;49.314;6.280;2022-07-23T12:05:55;8.55;;;7.65;;
46493;SDS011;53214;49.314;6.280;2022-07-23T12:08:23;8.15;;;7.25;;
46493;SDS011;53214;49.314;6.280;2022-07-23T12:10:50;8.40;;;7.43;;
46493;SDS011;53214;49.314;6.280;2022-07-23T12:13:18;8.05;;;6.95;;
46493;SDS011;53214;49.314;6.280;2022-07-23T12:15:48;7.75;;;6.75;;
46493;SDS011;53214;49.314;6.280;2022-07-23T12:18:18;7.55;;;6.75;;
46493;SDS011;53214;49.314;6.280;2022-07-23T12:20:52;9.25;;;7.55;;
46493;SDS011;53214;49.314;6.280;2022-07-23T12:23:24;7.40;;;6.68;;
46493;SDS011;53214;49.314;6.280;2022-07-23T12:25:52;9.43;;;7.00;;
46493;SDS011;53214;49.314;6.280;2022-07-23T12:28:21;9.30;;;7.00;;
46493;SDS011;53214;49.314;6.280;2022-07-23T12:30:56;9.00;;;7.18;;
46493;SDS011;53214;49.314;6.280;2022-07-23T12:33:27;8.25;;;6.82;;
46493;SDS011;53214;49.314;6.280;2022-07-23T12:36:09;7.68;;;6.47;;
46493;SDS011;53214;49.314;6.280;2022-07-23T12:38:44;8.27;;;6.50;;
46493;SDS011;53214;49.314;6.280;2022-07-23T12:41:15;8.07;;;6.32;;
46493;SDS011;53214;49.314;6.280;2022-07-23T12:43:43;9.10;;;7.10;;
46493;SDS011;53214;49.314;6.280;2022-07-23T12:46:15;8.98;;;7.03;;
46493;SDS011;53214;49.314;6.280;2022-07-23T12:53:52;8.10;;;6.47;;
46493;SDS011;53214;49.314;6.280;2022-07-23T12:56:28;8.95;;;6.40;;
46493;SDS011;53214;49.314;6.280;2022-07-23T12:59:06;7.32;;;6.13;;
46493;SDS011;53214;49.314;6.280;2022-07-23T13:01:43;7.82;;;6.70;;
46493;SDS011;53214;49.314;6.280;2022-07-23T13:04:23;7.72;;;6.40;;
46493;SDS011;53214;49.314;6.280;2022-07-23T13:06:54;8.73;;;6.50;;
46493;SDS011;53214;49.314;6.280;2022-07-23T13:09:26;8.68;;;5.93;;
46493;SDS011;53214;49.314;6.280;2022-07-23T13:11:59;7.57;;;6.78;;
46493;SDS011;53214;49.314;6.280;2022-07-23T13:14:27;8.80;;;6.90;;
46493;SDS011;53214;49.314;6.280;2022-07-23T13:16:55;7.28;;;6.05;;
46493;SDS011;53214;49.314;6.280;2022-07-23T13:19:25;7.72;;;6.43;;
46493;SDS011;53214;49.314;6.280;2022-07-23T13:21:53;7.20;;;6.35;;
46493;SDS011;53214;49.314;6.280;2022-07-23T13:24:20;9.60;;;6.60;;
46493;SDS011;53214;49.314;6.280;2022-07-23T13:26:48;7.85;;;6.80;;
46493;SDS011;53214;49.314;6.280;2022-07-23T13:29:17;8.90;;;6.55;;
46493;SDS011;53214;49.314;6.280;2022-07-23T13:31:45;7.70;;;6.20;;
46493;SDS011;53214;49.314;6.280;2022-07-23T13:34:13;7.32;;;6.57;;
46493;SDS011;53214;49.314;6.280;2022-07-23T13:36:40;7.35;;;6.53;;
46493;SDS011;53214;49.314;6.280;2022-07-23T13:39:07;9.13;;;6.95;;
46493;SDS011;53214;49.314;6.280;2022-07-23T13:41:35;8.68;;;7.15;;
46493;SDS011;53214;49.314;6.280;2022-07-23T13:44:03;9.18;;;7.22;;
46493;SDS011;53214;49.314;6.280;2022-07-23T13:46:32;8.27;;;7.38;;
46493;SDS011;53214;49.314;6.280;2022-07-23T13:49:00;9.43;;;7.40;;
46493;SDS011;53214;49.314;6.280;2022-07-23T13:51:28;8.73;;;7.18;;
46493;SDS011;53214;49.314;6.280;2022-07-23T13:53:54;9.50;;;6.40;;
46493;SDS011;53214;49.314;6.280;2022-07-23T13:56:25;7.40;;;6.25;;
46493;SDS011;53214;49.314;6.280;2022-07-23T13:58:52;7.60;;;6.28;;
46493;SDS011;53214;49.314;6.280;2022-07-23T14:01:19;8.32;;;5.95;;
46493;SDS011;53214;49.314;6.280;2022-07-23T14:03:46;6.63;;;5.60;;
46493;SDS011;53214;49.314;6.280;2022-07-23T14:06:13;9.73;;;5.85;;
46493;SDS011;53214;49.314;6.280;2022-07-23T14:08:45;7.93;;;5.47;;
46493;SDS011;53214;49.314;6.280;2022-07-23T14:11:13;8.27;;;5.95;;
46493;SDS011;53214;49.314;6.280;2022-07-23T14:13:40;7.97;;;5.80;;
46493;SDS011;53214;49.314;6.280;2022-07-23T14:16:07;7.78;;;6.28;;
46493;SDS011;53214;49.314;6.280;2022-07-23T14:18:34;8.98;;;6.65;;
46493;SDS011;53214;49.314;6.280;2022-07-23T14:21:03;9.63;;;7.03;;
46493;SDS011;53214;49.314;6.280;2022-07-23T14:23:32;8.48;;;6.45;;
46493;SDS011;53214;49.314;6.280;2022-07-23T14:26:00;7.25;;;6.40;;
46493;SDS011;53214;49.314;6.280;2022-07-23T14:28:29;8.50;;;6.90;;
46493;SDS011;53214;49.314;6.280;2022-07-23T14:31:01;8.40;;;5.93;;
46493;SDS011;53214;49.314;6.280;2022-07-23T14:33:28;7.93;;;5.45;;
46493;SDS011;53214;49.314;6.280;2022-07-23T14:35:55;6.28;;;5.68;;
46493;SDS011;53214;49.314;6.280;2022-07-23T14:38:22;7.63;;;5.55;;
46493;SDS011;53214;49.314;6.280;2022-07-23T14:40:49;14.75;;;6.10;;
46493;SDS011;53214;49.314;6.280;2022-07-23T14:43:16;8.70;;;5.93;;
46493;SDS011;53214;49.314;6.280;2022-07-23T14:45:43;7.28;;;5.60;;
46493;SDS011;53214;49.314;6.280;2022-07-23T14:48:14;6.78;;;6.07;;
46493;SDS011;53214;49.314;6.280;2022-07-23T14:50:41;11.20;;;6.10;;
46493;SDS011;53214;49.314;6.280;2022-07-23T14:53:08;7.65;;;6.20;;
46493;SDS011;53214;49.314;6.280;2022-07-23T14:55:35;7.07;;;6.18;;
46493;SDS011;53214;49.314;6.280;2022-07-23T14:58:02;7.90;;;5.90;;
46493;SDS011;53214;49.314;6.280;2022-07-23T15:00:29;11.02;;;6.63;;
46493;SDS011;53214;49.314;6.280;2022-07-23T15:02:56;6.97;;;5.65;;
46493;SDS011;53214;49.314;6.280;2022-07-23T15:05:23;6.38;;;5.30;;
46493;SDS011;53214;49.314;6.280;2022-07-23T15:07:52;8.00;;;5.60;;
46493;SDS011;53214;49.314;6.280;2022-07-23T15:10:19;6.30;;;5.57;;
46493;SDS011;53214;49.314;6.280;2022-07-23T15:12:48;8.50;;;5.35;;
46493;SDS011;53214;49.314;6.280;2022-07-23T15:15:15;7.18;;;6.03;;
46493;SDS011;53214;49.314;6.280;2022-07-23T15:17:44;6.30;;;5.65;;
46493;SDS011;53214;49.314;6.280;2022-07-23T15:20:11;6.93;;;6.00;;
46493;SDS011;53214;49.314;6.280;2022-07-23T15:22:43;7.38;;;6.07;;
46493;SDS011;53214;49.314;6.280;2022-07-23T15:25:11;7.10;;;6.40;;